createdAt,value
2022-11-23T00:00:13.432Z,73.38
2022-11-23T00:06:04.367Z,74.00
2022-11-23T00:11:36.068Z,73.73
2022-11-23T00:17:07.014Z,73.70
2022-11-23T00:22:38.175Z,74.25
2022-11-23T00:28:09.400Z,73.54
2022-11-23T00:33:42.094Z,73.61
2022-11-23T00:39:13.163Z,74.30
2022-11-23T00:44:45.594Z,74.21
2022-11-23T00:50:17.117Z,73.51
2022-11-23T00:55:53.182Z,74.11
2022-11-23T01:01:26.552Z,73.97
2022-11-23T01:06:58.098Z,73.35
2022-11-23T01:12:30.119Z,73.93
2022-11-23T01:18:01.528Z,73.85
2022-11-23T01:23:32.649Z,73.50
2022-11-23T01:29:04.016Z,73.35
2022-11-23T01:34:35.169Z,73.47
2022-11-23T01:40:07.222Z,73.77
2022-11-23T01:45:41.339Z,73.55
2022-11-23T01:51:18.350Z,73.94
2022-11-23T01:57:23.434Z,73.83
2022-11-23T02:02:57.233Z,73.64
2022-11-23T02:08:28.857Z,73.84
2022-11-23T02:14:00.455Z,73.73
2022-11-23T02:19:56.309Z,74.10
2022-11-23T02:25:45.576Z,73.76
2022-11-23T02:31:16.644Z,74.20
2022-11-23T02:36:51.987Z,73.92
2022-11-23T02:42:23.839Z,73.37
2022-11-23T02:47:55.197Z,73.62
2022-11-23T02:53:26.442Z,73.61
2022-11-23T02:58:58.764Z,74.01
2022-11-23T03:04:30.003Z,74.06
2022-11-23T03:10:01.709Z,74.37
2022-11-23T03:15:33.195Z,73.53
2022-11-23T03:21:06.321Z,74.27
2022-11-23T03:26:41.791Z,73.74
2022-11-23T03:32:14.463Z,73.67
2022-11-23T03:37:48.834Z,73.85
2022-11-23T03:43:20.385Z,74.07
2022-11-23T03:48:51.820Z,74.01
2022-11-23T03:54:22.838Z,73.78
2022-11-23T03:59:53.914Z,73.84
2022-11-23T04:05:28.007Z,74.10
2022-11-23T04:11:28.751Z,73.50
2022-11-23T04:17:00.325Z,73.63
2022-11-23T04:22:32.699Z,73.76
2022-11-23T04:28:04.062Z,73.53
2022-11-23T04:33:36.498Z,73.58
2022-11-23T04:39:08.692Z,73.98
2022-11-23T04:44:50.675Z,73.51
2022-11-23T04:50:23.133Z,74.38
2022-11-23T04:55:58.131Z,74.51
2022-11-23T05:01:30.005Z,74.09
2022-11-23T05:07:20.384Z,74.08
2022-11-23T05:12:58.343Z,74.22
2022-11-23T05:18:30.572Z,73.77
2022-11-23T05:24:03.016Z,73.60
2022-11-23T05:29:35.043Z,73.70
2022-11-23T05:35:08.715Z,73.69
2022-11-23T05:40:41.844Z,74.30
2022-11-23T05:46:13.643Z,74.08
2022-11-23T05:51:46.219Z,74.15
2022-11-23T05:57:22.627Z,74.31
2022-11-23T06:03:00.877Z,73.70
2022-11-23T06:08:34.265Z,73.77
2022-11-23T06:14:08.766Z,73.81
2022-11-23T06:19:43.593Z,73.79
2022-11-23T06:25:16.149Z,74.20
2022-11-23T06:31:04.183Z,74.38
2022-11-23T06:36:36.747Z,74.33
2022-11-23T06:42:31.262Z,74.51
2022-11-23T06:47:59.130Z,74.25
2022-11-23T06:53:31.547Z,74.38
2022-11-23T06:59:07.033Z,74.01
2022-11-23T07:04:38.662Z,74.11
2022-11-23T07:10:16.122Z,74.38
2022-11-23T07:15:50.283Z,74.64
2022-11-23T07:21:21.456Z,74.01
2022-11-23T07:26:53.788Z,73.88
2022-11-23T07:32:24.941Z,73.39
2022-11-23T07:37:56.293Z,73.64
2022-11-23T07:43:27.836Z,73.47
2022-11-23T07:49:02.416Z,73.94
2022-11-23T07:54:33.743Z,73.91
2022-11-23T08:00:05.791Z,74.13
2022-11-23T08:05:43.249Z,74.10
2022-11-23T08:11:19.000Z,73.85
2022-11-23T08:16:51.417Z,74.22
2022-11-23T08:22:22.862Z,73.39
2022-11-23T08:27:57.692Z,73.44
2022-11-23T08:33:28.942Z,74.18
2022-11-23T08:39:00.242Z,74.06
2022-11-23T08:44:31.922Z,74.24
2022-11-23T08:50:03.700Z,74.02
2022-11-23T08:55:34.762Z,73.96
2022-11-23T09:01:13.881Z,74.18
2022-11-23T09:06:45.007Z,74.07
2022-11-23T09:12:17.435Z,74.09
2022-11-23T09:17:48.634Z,74.49
2022-11-23T09:23:20.273Z,74.00
2022-11-23T09:28:51.758Z,74.05
2022-11-23T09:34:23.191Z,74.57
2022-11-23T09:39:54.029Z,74.02
2022-11-23T09:45:40.906Z,74.11
2022-11-23T09:51:17.865Z,74.20
2022-11-23T09:56:51.366Z,74.60
2022-11-23T10:02:29.069Z,74.27
2022-11-23T10:08:35.366Z,74.55
2022-11-23T10:14:15.673Z,74.35
2022-11-23T10:19:57.930Z,73.92
2022-11-23T10:25:38.733Z,74.46
2022-11-23T10:31:21.468Z,74.17
2022-11-23T10:36:52.866Z,73.71
2022-11-23T10:42:31.191Z,74.16
2022-11-23T10:48:02.191Z,73.67
2022-11-23T10:53:34.995Z,74.33
2022-11-23T10:59:06.018Z,74.09
2022-11-23T11:04:37.169Z,73.98
2022-11-23T11:10:32.211Z,73.90
2022-11-23T11:16:05.691Z,73.80
2022-11-23T11:21:41.906Z,74.38
2022-11-23T11:27:20.911Z,73.90
2022-11-23T11:33:15.539Z,74.18
2022-11-23T11:39:07.690Z,73.68
2022-11-23T11:44:41.522Z,74.34
2022-11-23T11:50:31.861Z,73.58
2022-11-23T11:56:28.297Z,74.16
2022-11-23T12:02:27.853Z,73.99
2022-11-23T12:08:18.214Z,73.57
2022-11-23T12:13:49.196Z,73.66
2022-11-23T12:19:53.281Z,73.97
2022-11-23T12:25:39.334Z,74.10
2022-11-23T12:31:27.996Z,74.04
2022-11-23T12:37:14.663Z,74.06
2022-11-23T12:43:01.856Z,73.93
2022-11-23T12:48:41.228Z,73.80
2022-11-23T12:54:32.906Z,74.45
2022-11-23T13:00:08.602Z,74.16
2022-11-23T13:06:13.799Z,74.02
2022-11-23T13:12:06.705Z,73.72
2022-11-23T13:17:49.408Z,74.12
2022-11-23T13:23:23.710Z,74.30
2022-11-23T13:28:59.504Z,74.49
2022-11-23T13:34:47.372Z,74.17
2022-11-23T13:40:42.314Z,73.48
2022-11-23T13:46:23.717Z,73.63
2022-11-23T13:52:06.817Z,74.02
2022-11-23T13:57:39.654Z,73.95
2022-11-23T14:03:51.021Z,74.00
2022-11-23T14:09:33.135Z,73.57
2022-11-23T14:15:14.399Z,74.04
2022-11-23T14:20:57.852Z,73.68
2022-11-23T14:27:23.731Z,73.50
2022-11-23T14:33:10.511Z,73.52
2022-11-23T14:38:52.371Z,73.49
2022-11-23T14:44:26.410Z,74.11
2022-11-23T14:49:58.106Z,73.60
2022-11-23T14:55:30.587Z,74.07
2022-11-23T15:01:02.380Z,73.79
2022-11-23T15:06:38.592Z,74.38
2022-11-23T15:12:41.761Z,74.29
2022-11-23T15:18:12.894Z,74.22
2022-11-23T15:24:02.154Z,74.47
2022-11-23T15:29:38.504Z,74.06
2022-11-23T15:35:14.829Z,74.43
2022-11-23T15:40:50.646Z,74.55
2022-11-23T15:46:30.585Z,74.47
2022-11-23T15:52:02.808Z,74.90
2022-11-23T15:57:34.335Z,75.49
2022-11-23T16:03:23.773Z,75.12
2022-11-23T16:08:54.803Z,75.11
2022-11-23T16:14:32.036Z,75.18
2022-11-23T16:20:05.268Z,75.30
2022-11-23T16:25:36.439Z,75.49
2022-11-23T16:31:29.510Z,75.03
2022-11-23T16:37:04.287Z,75.04
2022-11-23T16:42:35.520Z,74.56
2022-11-23T16:48:26.763Z,74.86
2022-11-23T16:54:15.230Z,75.35
2022-11-23T16:59:48.676Z,74.93
2022-11-23T17:05:21.349Z,74.55
2022-11-23T17:10:52.636Z,75.52
2022-11-23T17:16:25.146Z,74.77
2022-11-23T17:21:56.177Z,75.54
2022-11-23T17:27:27.617Z,74.81
2022-11-23T17:33:00.249Z,75.06
2022-11-23T17:38:31.124Z,74.54
2022-11-23T17:44:02.330Z,74.76
2022-11-23T17:49:33.868Z,74.98
2022-11-23T17:55:06.492Z,74.85
2022-11-23T18:00:38.533Z,75.24
2022-11-23T18:06:21.335Z,75.17
2022-11-23T18:11:52.688Z,74.59
2022-11-23T18:17:24.209Z,75.36
2022-11-23T18:22:55.196Z,75.19
2022-11-23T18:28:26.519Z,74.52
2022-11-23T18:33:57.694Z,75.31
2022-11-23T18:39:28.866Z,75.23
2022-11-23T18:45:01.314Z,74.81
2022-11-23T18:50:32.269Z,75.18
2022-11-23T18:56:04.428Z,75.32
2022-11-23T19:01:36.328Z,74.71
2022-11-23T19:07:07.310Z,74.87
2022-11-23T19:12:38.479Z,74.64
2022-11-23T19:18:09.779Z,75.02
2022-11-23T19:23:41.078Z,75.11
2022-11-23T19:29:13.842Z,74.60
2022-11-23T19:34:45.060Z,75.07
2022-11-23T19:40:17.084Z,74.49
2022-11-23T19:45:54.959Z,74.89
2022-11-23T19:51:26.886Z,74.40
2022-11-23T19:56:58.196Z,74.97
2022-11-23T20:02:30.396Z,74.67
2022-11-23T20:08:02.048Z,74.81
2022-11-23T20:13:33.962Z,74.77
2022-11-23T20:19:07.313Z,74.63
2022-11-23T20:24:38.831Z,74.35
2022-11-23T20:30:10.007Z,74.48
2022-11-23T20:35:41.762Z,74.07
2022-11-23T20:41:15.847Z,74.55
2022-11-23T20:47:01.659Z,74.27
2022-11-23T20:52:33.554Z,74.48
2022-11-23T20:58:04.538Z,74.26
2022-11-23T21:03:37.141Z,74.41
2022-11-23T21:09:09.699Z,74.21
2022-11-23T21:14:41.222Z,73.83
2022-11-23T21:20:12.483Z,74.07
2022-11-23T21:25:43.851Z,74.27
2022-11-23T21:31:17.893Z,74.63
2022-11-23T21:36:49.366Z,74.34
2022-11-23T21:42:20.440Z,74.51
2022-11-23T21:47:54.713Z,74.10
2022-11-23T21:53:26.014Z,74.52
2022-11-23T21:58:57.662Z,74.63
2022-11-23T22:04:28.464Z,74.73
2022-11-23T22:09:59.742Z,74.88
2022-11-23T22:15:31.833Z,74.58
2022-11-23T22:21:06.268Z,75.00
2022-11-23T22:26:37.446Z,74.89
2022-11-23T22:32:08.881Z,74.54
2022-11-23T22:37:40.353Z,74.54
2022-11-23T22:43:11.385Z,74.82
2022-11-23T22:48:44.444Z,74.47
2022-11-23T22:54:15.857Z,74.35
2022-11-23T22:59:47.490Z,74.30
2022-11-23T23:05:19.900Z,74.95
2022-11-23T23:10:51.616Z,74.80
2022-11-23T23:16:23.295Z,74.92
2022-11-23T23:21:54.526Z,74.20
2022-11-23T23:27:25.689Z,74.25
2022-11-23T23:33:00.191Z,74.46
2022-11-23T23:38:31.990Z,74.17
2022-11-23T23:44:03.693Z,74.23
2022-11-23T23:49:34.926Z,74.73
2022-11-23T23:55:07.076Z,74.48
